Main page
METAR-TAF:

METAR-TAF

Airports :

Yap, Micronesia

Yap International Airport

latitude: 09-29N, longitude: 138-05E, elevation: 28 m

Current weather observation

The report was made 43 minutes ago, at 01:50 UTC
Wind 10 kt from the Northeast
Temperature 30°C
Humidity 70%
Pressure 1009 hPa
Visibility: 19.3 km
Few clouds at a height of 1600 ft
Scattered clouds at a height of 13000 ft
Broken clouds at a height of 30000 ft

METAR: PTYA 220150Z 05010KT 12SM FEW016 SCT130 BKN300 30/24 A2980 RMK SLP093 T02990237

Time: 12:33 (02:33 UTC)

Forecast

The report was made 3 hours and 6 minutes ago, at 23:27 UTC
Forecast valid from 22 at 00 UTC to 22 at 24 UTC
Wind 9 kt from the East/Northeast
Visibility: 10 km
Scattered clouds at a height of 1800 ft
Broken clouds at a height of 13000 ft
showers in vicinity

TAF: PTYA 212327Z 2200/2224 07009KT P6SM VCSH SCT018 BKN130

Weather observations and forecasts of more than 4000 airports (METAR and TAF reports).

The available stations are represented by yellow and red dots on the map.

Hover mouse over dot to see the name of the station.

Then click to see weather observations and forecasts.

To change the map : click on the green buttons with a black cross to zoom in, on the green button with a dash to zoom out, or on the green arrows for adjacent maps.


METAR-TAF: